sensor_id;sensor_type;location;lat;lon;timestamp;P1;durP1;ratioP1;P2;durP2;ratioP2
2175;SDS011;1094;49.902;10.876;2023-03-01T00:02:12;37.07;;;33.47;;
2175;SDS011;1094;49.902;10.876;2023-03-01T00:04:38;36.50;;;32.47;;
2175;SDS011;1094;49.902;10.876;2023-03-01T00:07:04;37.23;;;32.40;;
2175;SDS011;1094;49.902;10.876;2023-03-01T00:09:30;36.10;;;32.67;;
2175;SDS011;1094;49.902;10.876;2023-03-01T00:11:55;35.33;;;32.03;;
2175;SDS011;1094;49.902;10.876;2023-03-01T00:14:21;35.60;;;32.30;;
2175;SDS011;1094;49.902;10.876;2023-03-01T00:16:48;36.45;;;32.97;;
2175;SDS011;1094;49.902;10.876;2023-03-01T00:19:15;36.63;;;33.05;;
2175;SDS011;1094;49.902;10.876;2023-03-01T00:21:42;37.80;;;33.97;;
2175;SDS011;1094;49.902;10.876;2023-03-01T00:24:08;38.97;;;35.40;;
2175;SDS011;1094;49.902;10.876;2023-03-01T00:26:35;38.75;;;34.60;;
2175;SDS011;1094;49.902;10.876;2023-03-01T00:29:01;37.65;;;33.65;;
2175;SDS011;1094;49.902;10.876;2023-03-01T00:31:28;44.03;;;36.45;;
2175;SDS011;1094;49.902;10.876;2023-03-01T00:33:55;37.22;;;33.50;;
2175;SDS011;1094;49.902;10.876;2023-03-01T00:36:25;36.42;;;33.13;;
2175;SDS011;1094;49.902;10.876;2023-03-01T00:38:51;39.80;;;36.10;;
2175;SDS011;1094;49.902;10.876;2023-03-01T00:41:18;36.57;;;32.90;;
2175;SDS011;1094;49.902;10.876;2023-03-01T00:43:44;36.80;;;33.15;;
2175;SDS011;1094;49.902;10.876;2023-03-01T00:46:12;37.97;;;34.33;;
2175;SDS011;1094;49.902;10.876;2023-03-01T00:48:41;38.78;;;34.78;;
2175;SDS011;1094;49.902;10.876;2023-03-01T00:51:08;41.28;;;37.08;;
2175;SDS011;1094;49.902;10.876;2023-03-01T00:53:34;36.95;;;33.60;;
2175;SDS011;1094;49.902;10.876;2023-03-01T00:56:00;38.05;;;34.35;;
2175;SDS011;1094;49.902;10.876;2023-03-01T00:58:26;38.53;;;34.92;;
2175;SDS011;1094;49.902;10.876;2023-03-01T01:00:52;38.20;;;34.38;;
2175;SDS011;1094;49.902;10.876;2023-03-01T01:03:18;39.53;;;35.67;;
2175;SDS011;1094;49.902;10.876;2023-03-01T01:05:45;36.95;;;33.28;;
2175;SDS011;1094;49.902;10.876;2023-03-01T01:08:11;36.03;;;32.28;;
2175;SDS011;1094;49.902;10.876;2023-03-01T01:10:37;37.55;;;33.97;;
2175;SDS011;1094;49.902;10.876;2023-03-01T01:13:03;37.80;;;32.67;;
2175;SDS011;1094;49.902;10.876;2023-03-01T01:15:32;35.42;;;31.80;;
2175;SDS011;1094;49.902;10.876;2023-03-01T01:17:59;37.47;;;34.08;;
2175;SDS011;1094;49.902;10.876;2023-03-01T01:20:25;36.65;;;33.13;;
2175;SDS011;1094;49.902;10.876;2023-03-01T01:22:50;37.80;;;33.57;;
2175;SDS011;1094;49.902;10.876;2023-03-01T01:25:17;37.55;;;33.75;;
2175;SDS011;1094;49.902;10.876;2023-03-01T01:27:43;38.58;;;34.47;;
2175;SDS011;1094;49.902;10.876;2023-03-01T01:30:09;36.90;;;33.20;;
2175;SDS011;1094;49.902;10.876;2023-03-01T01:32:35;36.70;;;33.20;;
2175;SDS011;1094;49.902;10.876;2023-03-01T01:35:01;38.37;;;34.30;;
2175;SDS011;1094;49.902;10.876;2023-03-01T01:37:27;37.30;;;33.33;;
2175;SDS011;1094;49.902;10.876;2023-03-01T01:39:59;36.13;;;32.65;;
2175;SDS011;1094;49.902;10.876;2023-03-01T01:42:26;34.88;;;31.73;;
2175;SDS011;1094;49.902;10.876;2023-03-01T01:47:37;37.88;;;34.17;;
2175;SDS011;1094;49.902;10.876;2023-03-01T01:50:03;36.88;;;33.38;;
2175;SDS011;1094;49.902;10.876;2023-03-01T01:52:30;37.67;;;34.10;;
2175;SDS011;1094;49.902;10.876;2023-03-01T01:55:02;37.75;;;33.75;;
2175;SDS011;1094;49.902;10.876;2023-03-01T01:57:33;37.55;;;33.50;;
2175;SDS011;1094;49.902;10.876;2023-03-01T02:00:00;35.92;;;32.25;;
2175;SDS011;1094;49.902;10.876;2023-03-01T02:02:28;36.50;;;33.30;;
2175;SDS011;1094;49.902;10.876;2023-03-01T02:04:56;36.90;;;32.93;;
2175;SDS011;1094;49.902;10.876;2023-03-01T02:07:24;36.25;;;33.05;;
2175;SDS011;1094;49.902;10.876;2023-03-01T02:09:51;36.22;;;32.50;;
2175;SDS011;1094;49.902;10.876;2023-03-01T02:12:19;36.25;;;32.42;;
2175;SDS011;1094;49.902;10.876;2023-03-01T02:14:46;36.40;;;32.50;;
2175;SDS011;1094;49.902;10.876;2023-03-01T02:17:12;36.70;;;32.90;;
2175;SDS011;1094;49.902;10.876;2023-03-01T02:22:25;35.22;;;31.63;;
2175;SDS011;1094;49.902;10.876;2023-03-01T02:27:22;37.22;;;33.42;;
2175;SDS011;1094;49.902;10.876;2023-03-01T02:29:49;35.70;;;32.50;;
2175;SDS011;1094;49.902;10.876;2023-03-01T02:32:15;38.90;;;34.92;;
2175;SDS011;1094;49.902;10.876;2023-03-01T02:34:46;36.70;;;33.42;;
2175;SDS011;1094;49.902;10.876;2023-03-01T02:37:13;38.13;;;34.10;;
2175;SDS011;1094;49.902;10.876;2023-03-01T02:39:40;35.92;;;32.63;;
2175;SDS011;1094;49.902;10.876;2023-03-01T02:42:11;37.58;;;33.88;;
2175;SDS011;1094;49.902;10.876;2023-03-01T02:44:38;37.22;;;33.55;;
2175;SDS011;1094;49.902;10.876;2023-03-01T02:47:04;39.57;;;35.33;;
2175;SDS011;1094;49.902;10.876;2023-03-01T02:49:31;38.97;;;34.90;;
2175;SDS011;1094;49.902;10.876;2023-03-01T02:52:11;43.25;;;33.45;;
2175;SDS011;1094;49.902;10.876;2023-03-01T02:54:56;37.80;;;33.90;;
2175;SDS011;1094;49.902;10.876;2023-03-01T02:57:24;36.70;;;33.17;;
2175;SDS011;1094;49.902;10.876;2023-03-01T02:59:52;38.28;;;34.22;;
2175;SDS011;1094;49.902;10.876;2023-03-01T03:02:21;37.85;;;33.65;;
2175;SDS011;1094;49.902;10.876;2023-03-01T03:05:01;38.13;;;33.75;;
2175;SDS011;1094;49.902;10.876;2023-03-01T03:07:27;38.65;;;34.65;;
2175;SDS011;1094;49.902;10.876;2023-03-01T03:09:53;36.77;;;33.20;;
2175;SDS011;1094;49.902;10.876;2023-03-01T03:12:19;41.30;;;34.28;;
2175;SDS011;1094;49.902;10.876;2023-03-01T03:14:44;38.90;;;35.00;;
2175;SDS011;1094;49.902;10.876;2023-03-01T03:17:11;37.15;;;33.40;;
2175;SDS011;1094;49.902;10.876;2023-03-01T03:19:37;39.40;;;35.33;;
2175;SDS011;1094;49.902;10.876;2023-03-01T03:22:03;36.77;;;33.20;;
2175;SDS011;1094;49.902;10.876;2023-03-01T03:24:29;37.13;;;33.23;;
2175;SDS011;1094;49.902;10.876;2023-03-01T03:27:02;39.20;;;34.97;;
2175;SDS011;1094;49.902;10.876;2023-03-01T03:29:28;37.60;;;33.97;;
2175;SDS011;1094;49.902;10.876;2023-03-01T03:31:54;38.30;;;34.33;;
2175;SDS011;1094;49.902;10.876;2023-03-01T03:34:20;37.40;;;33.80;;
2175;SDS011;1094;49.902;10.876;2023-03-01T03:36:46;44.23;;;36.03;;
2175;SDS011;1094;49.902;10.876;2023-03-01T03:39:12;37.23;;;33.13;;
2175;SDS011;1094;49.902;10.876;2023-03-01T03:41:38;38.60;;;34.37;;
2175;SDS011;1094;49.902;10.876;2023-03-01T03:44:04;37.15;;;33.55;;
2175;SDS011;1094;49.902;10.876;2023-03-01T03:46:30;41.50;;;35.10;;
2175;SDS011;1094;49.902;10.876;2023-03-01T03:48:56;39.60;;;35.30;;
2175;SDS011;1094;49.902;10.876;2023-03-01T03:51:21;38.00;;;34.30;;
2175;SDS011;1094;49.902;10.876;2023-03-01T03:53:47;38.40;;;34.43;;
2175;SDS011;1094;49.902;10.876;2023-03-01T03:56:13;39.77;;;33.77;;
2175;SDS011;1094;49.902;10.876;2023-03-01T03:58:39;37.77;;;34.17;;
2175;SDS011;1094;49.902;10.876;2023-03-01T04:01:05;37.38;;;33.90;;
2175;SDS011;1094;49.902;10.876;2023-03-01T04:03:31;36.70;;;33.10;;
2175;SDS011;1094;49.902;10.876;2023-03-01T04:05:58;37.75;;;34.17;;
2175;SDS011;1094;49.902;10.876;2023-03-01T04:08:24;37.35;;;33.83;;
2175;SDS011;1094;49.902;10.876;2023-03-01T04:10:51;37.90;;;34.13;;
2175;SDS011;1094;49.902;10.876;2023-03-01T04:13:19;38.95;;;35.00;;
2175;SDS011;1094;49.902;10.876;2023-03-01T04:15:46;39.80;;;35.75;;
2175;SDS011;1094;49.902;10.876;2023-03-01T04:18:13;36.30;;;32.65;;
2175;SDS011;1094;49.902;10.876;2023-03-01T04:20:39;38.17;;;34.38;;
2175;SDS011;1094;49.902;10.876;2023-03-01T04:23:06;38.40;;;34.53;;
2175;SDS011;1094;49.902;10.876;2023-03-01T04:25:42;41.33;;;33.17;;
2175;SDS011;1094;49.902;10.876;2023-03-01T04:28:10;36.78;;;33.17;;
2175;SDS011;1094;49.902;10.876;2023-03-01T04:30:37;37.27;;;33.27;;
2175;SDS011;1094;49.902;10.876;2023-03-01T04:33:06;40.38;;;36.67;;
2175;SDS011;1094;49.902;10.876;2023-03-01T04:35:32;36.47;;;32.80;;
2175;SDS011;1094;49.902;10.876;2023-03-01T04:37:59;39.90;;;34.95;;
2175;SDS011;1094;49.902;10.876;2023-03-01T04:40:25;39.70;;;35.50;;
2175;SDS011;1094;49.902;10.876;2023-03-01T04:42:51;42.75;;;35.80;;
2175;SDS011;1094;49.902;10.876;2023-03-01T04:45:17;37.83;;;34.20;;
2175;SDS011;1094;49.902;10.876;2023-03-01T04:47:43;38.17;;;34.20;;
2175;SDS011;1094;49.902;10.876;2023-03-01T04:50:11;40.03;;;35.78;;
2175;SDS011;1094;49.902;10.876;2023-03-01T04:52:37;38.72;;;34.75;;
2175;SDS011;1094;49.902;10.876;2023-03-01T04:55:03;37.53;;;33.53;;
2175;SDS011;1094;49.902;10.876;2023-03-01T04:57:29;39.20;;;35.08;;
2175;SDS011;1094;49.902;10.876;2023-03-01T04:59:55;40.63;;;36.22;;
2175;SDS011;1094;49.902;10.876;2023-03-01T05:02:21;39.58;;;35.53;;
2175;SDS011;1094;49.902;10.876;2023-03-01T05:04:47;38.43;;;34.30;;
2175;SDS011;1094;49.902;10.876;2023-03-01T05:07:13;39.83;;;35.73;;
2175;SDS011;1094;49.902;10.876;2023-03-01T05:09:44;39.80;;;35.85;;
2175;SDS011;1094;49.902;10.876;2023-03-01T05:12:10;37.70;;;33.80;;
2175;SDS011;1094;49.902;10.876;2023-03-01T05:14:36;40.60;;;35.93;;
2175;SDS011;1094;49.902;10.876;2023-03-01T05:17:03;37.72;;;34.00;;
2175;SDS011;1094;49.902;10.876;2023-03-01T05:19:29;39.53;;;35.70;;
2175;SDS011;1094;49.902;10.876;2023-03-01T05:21:56;41.28;;;37.08;;
2175;SDS011;1094;49.902;10.876;2023-03-01T05:24:31;37.90;;;33.63;;
2175;SDS011;1094;49.902;10.876;2023-03-01T05:26:58;40.58;;;36.65;;
2175;SDS011;1094;49.902;10.876;2023-03-01T05:29:25;38.95;;;35.25;;
2175;SDS011;1094;49.902;10.876;2023-03-01T05:31:55;38.65;;;34.95;;
2175;SDS011;1094;49.902;10.876;2023-03-01T05:34:26;43.53;;;37.47;;
2175;SDS011;1094;49.902;10.876;2023-03-01T05:36:52;39.90;;;35.65;;
2175;SDS011;1094;49.902;10.876;2023-03-01T05:39:20;40.40;;;36.30;;
2175;SDS011;1094;49.902;10.876;2023-03-01T05:41:46;39.15;;;35.13;;
2175;SDS011;1094;49.902;10.876;2023-03-01T05:44:13;37.25;;;33.50;;
2175;SDS011;1094;49.902;10.876;2023-03-01T05:46:39;39.75;;;35.63;;
2175;SDS011;1094;49.902;10.876;2023-03-01T05:49:05;39.17;;;35.17;;
2175;SDS011;1094;49.902;10.876;2023-03-01T05:51:31;41.97;;;37.63;;
2175;SDS011;1094;49.902;10.876;2023-03-01T05:53:58;39.70;;;35.63;;
2175;SDS011;1094;49.902;10.876;2023-03-01T05:56:24;38.80;;;34.93;;
2175;SDS011;1094;49.902;10.876;2023-03-01T05:58:50;39.63;;;35.55;;
2175;SDS011;1094;49.902;10.876;2023-03-01T06:01:16;38.83;;;35.00;;
2175;SDS011;1094;49.902;10.876;2023-03-01T06:03:42;39.50;;;35.40;;
2175;SDS011;1094;49.902;10.876;2023-03-01T06:06:08;44.17;;;37.63;;
2175;SDS011;1094;49.902;10.876;2023-03-01T06:08:34;39.37;;;35.87;;
2175;SDS011;1094;49.902;10.876;2023-03-01T06:11:00;39.53;;;35.43;;
2175;SDS011;1094;49.902;10.876;2023-03-01T06:13:26;40.20;;;35.40;;
2175;SDS011;1094;49.902;10.876;2023-03-01T06:15:52;37.75;;;34.05;;
2175;SDS011;1094;49.902;10.876;2023-03-01T06:18:18;39.70;;;36.00;;
2175;SDS011;1094;49.902;10.876;2023-03-01T06:20:44;45.23;;;35.60;;
2175;SDS011;1094;49.902;10.876;2023-03-01T06:23:09;40.50;;;36.23;;
2175;SDS011;1094;49.902;10.876;2023-03-01T06:25:35;40.77;;;36.50;;
2175;SDS011;1094;49.902;10.876;2023-03-01T06:28:02;41.28;;;37.00;;
2175;SDS011;1094;49.902;10.876;2023-03-01T06:30:29;45.53;;;38.80;;
2175;SDS011;1094;49.902;10.876;2023-03-01T06:32:55;39.42;;;35.67;;
2175;SDS011;1094;49.902;10.876;2023-03-01T06:35:26;39.13;;;35.00;;
2175;SDS011;1094;49.902;10.876;2023-03-01T06:37:54;40.38;;;36.55;;
2175;SDS011;1094;49.902;10.876;2023-03-01T06:40:21;40.25;;;36.25;;
2175;SDS011;1094;49.902;10.876;2023-03-01T06:42:47;41.28;;;37.13;;
2175;SDS011;1094;49.902;10.876;2023-03-01T06:45:14;40.42;;;36.53;;
2175;SDS011;1094;49.902;10.876;2023-03-01T06:47:40;41.13;;;37.22;;
2175;SDS011;1094;49.902;10.876;2023-03-01T06:50:06;39.23;;;35.33;;
2175;SDS011;1094;49.902;10.876;2023-03-01T06:55:04;38.40;;;34.72;;
2175;SDS011;1094;49.902;10.876;2023-03-01T06:57:30;39.92;;;35.80;;
2175;SDS011;1094;49.902;10.876;2023-03-01T06:59:56;38.90;;;35.20;;
2175;SDS011;1094;49.902;10.876;2023-03-01T07:02:22;39.67;;;35.67;;
2175;SDS011;1094;49.902;10.876;2023-03-01T07:04:49;40.92;;;36.80;;
2175;SDS011;1094;49.902;10.876;2023-03-01T07:07:15;37.60;;;33.80;;
2175;SDS011;1094;49.902;10.876;2023-03-01T07:09:42;38.67;;;34.58;;
2175;SDS011;1094;49.902;10.876;2023-03-01T07:12:08;36.43;;;33.03;;
2175;SDS011;1094;49.902;10.876;2023-03-01T07:14:34;38.63;;;34.60;;
2175;SDS011;1094;49.902;10.876;2023-03-01T07:17:00;37.47;;;33.77;;
2175;SDS011;1094;49.902;10.876;2023-03-01T07:19:26;36.23;;;32.40;;
2175;SDS011;1094;49.902;10.876;2023-03-01T07:21:52;37.40;;;33.78;;
2175;SDS011;1094;49.902;10.876;2023-03-01T07:24:18;36.92;;;33.22;;
2175;SDS011;1094;49.902;10.876;2023-03-01T07:26:47;38.53;;;34.58;;
2175;SDS011;1094;49.902;10.876;2023-03-01T07:29:14;36.95;;;33.13;;
2175;SDS011;1094;49.902;10.876;2023-03-01T07:31:40;39.90;;;35.80;;
2175;SDS011;1094;49.902;10.876;2023-03-01T07:34:06;37.93;;;33.70;;
2175;SDS011;1094;49.902;10.876;2023-03-01T07:36:31;36.57;;;33.23;;
2175;SDS011;1094;49.902;10.876;2023-03-01T07:38:57;34.50;;;31.30;;
2175;SDS011;1094;49.902;10.876;2023-03-01T07:41:24;34.63;;;31.40;;
2175;SDS011;1094;49.902;10.876;2023-03-01T07:43:49;35.97;;;32.37;;
2175;SDS011;1094;49.902;10.876;2023-03-01T07:46:15;33.43;;;30.13;;
2175;SDS011;1094;49.902;10.876;2023-03-01T07:48:43;35.13;;;31.80;;
2175;SDS011;1094;49.902;10.876;2023-03-01T07:51:09;37.00;;;33.60;;
2175;SDS011;1094;49.902;10.876;2023-03-01T07:53:35;34.73;;;31.07;;
2175;SDS011;1094;49.902;10.876;2023-03-01T07:56:06;35.30;;;32.00;;
2175;SDS011;1094;49.902;10.876;2023-03-01T07:58:35;32.77;;;29.87;;
2175;SDS011;1094;49.902;10.876;2023-03-01T08:01:05;34.70;;;31.23;;
2175;SDS011;1094;49.902;10.876;2023-03-01T08:03:32;33.70;;;30.60;;
2175;SDS011;1094;49.902;10.876;2023-03-01T08:06:01;35.00;;;31.80;;
2175;SDS011;1094;49.902;10.876;2023-03-01T08:08:28;32.60;;;30.03;;
2175;SDS011;1094;49.902;10.876;2023-03-01T08:10:57;34.40;;;30.83;;
2175;SDS011;1094;49.902;10.876;2023-03-01T08:13:23;35.70;;;32.40;;
2175;SDS011;1094;49.902;10.876;2023-03-01T08:15:49;34.30;;;31.40;;
2175;SDS011;1094;49.902;10.876;2023-03-01T08:18:16;39.07;;;32.60;;
2175;SDS011;1094;49.902;10.876;2023-03-01T08:20:42;33.47;;;30.70;;
2175;SDS011;1094;49.902;10.876;2023-03-01T08:23:08;35.00;;;32.00;;
2175;SDS011;1094;49.902;10.876;2023-03-01T08:25:34;34.73;;;31.60;;
2175;SDS011;1094;49.902;10.876;2023-03-01T08:28:00;34.93;;;31.87;;
2175;SDS011;1094;49.902;10.876;2023-03-01T08:30:26;33.70;;;30.80;;
2175;SDS011;1094;49.902;10.876;2023-03-01T08:32:52;34.63;;;31.23;;
2175;SDS011;1094;49.902;10.876;2023-03-01T08:35:18;36.20;;;33.10;;
2175;SDS011;1094;49.902;10.876;2023-03-01T08:37:45;34.67;;;31.20;;
2175;SDS011;1094;49.902;10.876;2023-03-01T08:40:11;34.77;;;31.63;;
2175;SDS011;1094;49.902;10.876;2023-03-01T08:42:38;35.03;;;31.90;;
2175;SDS011;1094;49.902;10.876;2023-03-01T08:45:04;34.80;;;31.77;;
2175;SDS011;1094;49.902;10.876;2023-03-01T08:47:30;33.60;;;30.80;;
2175;SDS011;1094;49.902;10.876;2023-03-01T08:49:58;34.27;;;31.30;;
2175;SDS011;1094;49.902;10.876;2023-03-01T08:52:24;34.13;;;31.23;;
2175;SDS011;1094;49.902;10.876;2023-03-01T08:54:50;34.10;;;31.40;;
2175;SDS011;1094;49.902;10.876;2023-03-01T08:57:17;36.27;;;32.60;;
2175;SDS011;1094;49.902;10.876;2023-03-01T08:59:42;33.20;;;30.50;;
2175;SDS011;1094;49.902;10.876;2023-03-01T09:02:10;35.93;;;32.73;;
2175;SDS011;1094;49.902;10.876;2023-03-01T09:04:37;36.23;;;33.23;;
2175;SDS011;1094;49.902;10.876;2023-03-01T09:07:03;35.23;;;32.30;;
2175;SDS011;1094;49.902;10.876;2023-03-01T09:09:29;35.10;;;31.90;;
2175;SDS011;1094;49.902;10.876;2023-03-01T09:11:55;34.07;;;31.37;;
2175;SDS011;1094;49.902;10.876;2023-03-01T09:14:21;32.47;;;29.77;;
2175;SDS011;1094;49.902;10.876;2023-03-01T09:16:47;32.80;;;30.10;;
2175;SDS011;1094;49.902;10.876;2023-03-01T09:19:13;32.73;;;30.13;;
2175;SDS011;1094;49.902;10.876;2023-03-01T09:21:39;34.20;;;31.03;;
2175;SDS011;1094;49.902;10.876;2023-03-01T09:24:05;33.00;;;30.20;;
2175;SDS011;1094;49.902;10.876;2023-03-01T09:26:31;33.00;;;30.40;;
2175;SDS011;1094;49.902;10.876;2023-03-01T09:28:57;33.30;;;30.53;;
2175;SDS011;1094;49.902;10.876;2023-03-01T09:31:23;32.30;;;29.27;;
2175;SDS011;1094;49.902;10.876;2023-03-01T09:33:50;32.23;;;29.63;;
2175;SDS011;1094;49.902;10.876;2023-03-01T09:36:17;32.40;;;29.70;;
2175;SDS011;1094;49.902;10.876;2023-03-01T09:38:44;32.80;;;30.00;;
2175;SDS011;1094;49.902;10.876;2023-03-01T09:41:10;31.83;;;29.20;;
2175;SDS011;1094;49.902;10.876;2023-03-01T09:46:08;32.57;;;29.90;;
2175;SDS011;1094;49.902;10.876;2023-03-01T09:51:32;33.07;;;30.23;;
2175;SDS011;1094;49.902;10.876;2023-03-01T09:54:00;31.67;;;29.27;;
2175;SDS011;1094;49.902;10.876;2023-03-01T09:56:32;32.73;;;29.70;;
2175;SDS011;1094;49.902;10.876;2023-03-01T09:59:04;33.10;;;30.30;;
2175;SDS011;1094;49.902;10.876;2023-03-01T10:01:34;33.50;;;30.40;;
2175;SDS011;1094;49.902;10.876;2023-03-01T10:06:50;32.10;;;29.50;;
2175;SDS011;1094;49.902;10.876;2023-03-01T10:09:17;32.83;;;30.23;;
2175;SDS011;1094;49.902;10.876;2023-03-01T10:11:48;33.87;;;31.03;;
2175;SDS011;1094;49.902;10.876;2023-03-01T10:14:19;32.73;;;29.93;;
2175;SDS011;1094;49.902;10.876;2023-03-01T10:19:20;32.93;;;30.33;;
2175;SDS011;1094;49.902;10.876;2023-03-01T10:21:48;33.07;;;30.17;;
2175;SDS011;1094;49.902;10.876;2023-03-01T10:24:17;31.87;;;29.37;;
2175;SDS011;1094;49.902;10.876;2023-03-01T10:26:47;32.67;;;29.77;;
2175;SDS011;1094;49.902;10.876;2023-03-01T10:29:14;32.30;;;29.73;;
2175;SDS011;1094;49.902;10.876;2023-03-01T10:31:44;34.70;;;31.70;;
2175;SDS011;1094;49.902;10.876;2023-03-01T10:34:12;33.80;;;30.90;;
2175;SDS011;1094;49.902;10.876;2023-03-01T10:36:39;32.33;;;29.83;;
2175;SDS011;1094;49.902;10.876;2023-03-01T10:39:13;32.57;;;30.00;;
2175;SDS011;1094;49.902;10.876;2023-03-01T10:41:48;32.67;;;30.07;;
2175;SDS011;1094;49.902;10.876;2023-03-01T10:47:02;32.47;;;29.87;;
2175;SDS011;1094;49.902;10.876;2023-03-01T10:49:29;32.67;;;30.00;;
2175;SDS011;1094;49.902;10.876;2023-03-01T10:51:55;34.33;;;31.23;;
2175;SDS011;1094;49.902;10.876;2023-03-01T10:54:31;33.40;;;30.40;;
2175;SDS011;1094;49.902;10.876;2023-03-01T10:56:59;32.90;;;30.10;;
2175;SDS011;1094;49.902;10.876;2023-03-01T10:59:27;31.70;;;29.00;;
2175;SDS011;1094;49.902;10.876;2023-03-01T11:04:37;34.07;;;31.07;;
2175;SDS011;1094;49.902;10.876;2023-03-01T11:07:03;34.00;;;30.80;;
2175;SDS011;1094;49.902;10.876;2023-03-01T11:09:33;34.83;;;31.83;;
2175;SDS011;1094;49.902;10.876;2023-03-01T11:12:02;32.30;;;29.40;;
2175;SDS011;1094;49.902;10.876;2023-03-01T11:14:31;32.80;;;30.13;;
2175;SDS011;1094;49.902;10.876;2023-03-01T11:17:03;33.50;;;30.60;;
2175;SDS011;1094;49.902;10.876;2023-03-01T11:19:30;31.60;;;28.90;;
2175;SDS011;1094;49.902;10.876;2023-03-01T11:22:07;34.93;;;31.77;;
2175;SDS011;1094;49.902;10.876;2023-03-01T11:27:03;32.33;;;29.63;;
2175;SDS011;1094;49.902;10.876;2023-03-01T11:29:40;33.23;;;30.30;;
2175;SDS011;1094;49.902;10.876;2023-03-01T11:32:08;32.97;;;30.23;;
2175;SDS011;1094;49.902;10.876;2023-03-01T11:37:01;32.23;;;29.70;;
2175;SDS011;1094;49.902;10.876;2023-03-01T11:39:47;33.90;;;31.00;;
2175;SDS011;1094;49.902;10.876;2023-03-01T11:42:17;33.43;;;30.83;;
2175;SDS011;1094;49.902;10.876;2023-03-01T11:44:44;34.70;;;31.70;;
2175;SDS011;1094;49.902;10.876;2023-03-01T11:47:24;34.93;;;31.87;;
2175;SDS011;1094;49.902;10.876;2023-03-01T11:52:25;33.70;;;30.90;;
2175;SDS011;1094;49.902;10.876;2023-03-01T11:57:55;33.77;;;30.83;;
2175;SDS011;1094;49.902;10.876;2023-03-01T12:00:25;33.13;;;30.33;;
2175;SDS011;1094;49.902;10.876;2023-03-01T12:10:27;33.97;;;31.07;;
2175;SDS011;1094;49.902;10.876;2023-03-01T12:15:26;34.70;;;31.60;;
2175;SDS011;1094;49.902;10.876;2023-03-01T12:28:35;34.23;;;31.00;;
2175;SDS011;1094;49.902;10.876;2023-03-01T12:31:16;33.10;;;30.33;;
2175;SDS011;1094;49.902;10.876;2023-03-01T12:36:27;34.57;;;31.50;;
2175;SDS011;1094;49.902;10.876;2023-03-01T12:39:19;34.17;;;31.03;;
2175;SDS011;1094;49.902;10.876;2023-03-01T12:41:50;33.43;;;30.77;;
2175;SDS011;1094;49.902;10.876;2023-03-01T12:49:19;33.47;;;30.73;;
2175;SDS011;1094;49.902;10.876;2023-03-01T12:51:51;33.50;;;30.70;;
2175;SDS011;1094;49.902;10.876;2023-03-01T12:54:29;33.10;;;30.30;;
2175;SDS011;1094;49.902;10.876;2023-03-01T12:56:57;33.20;;;30.30;;
2175;SDS011;1094;49.902;10.876;2023-03-01T13:02:23;32.43;;;29.60;;
2175;SDS011;1094;49.902;10.876;2023-03-01T13:04:58;32.63;;;30.00;;
2175;SDS011;1094;49.902;10.876;2023-03-01T13:07:30;33.47;;;30.63;;
2175;SDS011;1094;49.902;10.876;2023-03-01T13:21:06;31.27;;;28.60;;
2175;SDS011;1094;49.902;10.876;2023-03-01T13:31:02;32.37;;;29.87;;
2175;SDS011;1094;49.902;10.876;2023-03-01T13:35:55;34.40;;;31.20;;
2175;SDS011;1094;49.902;10.876;2023-03-01T13:41:06;30.53;;;28.03;;
2175;SDS011;1094;49.902;10.876;2023-03-01T13:43:36;33.57;;;30.60;;
2175;SDS011;1094;49.902;10.876;2023-03-01T13:46:07;33.00;;;29.90;;
2175;SDS011;1094;49.902;10.876;2023-03-01T13:48:33;32.63;;;29.60;;
2175;SDS011;1094;49.902;10.876;2023-03-01T13:51:03;30.73;;;28.10;;
2175;SDS011;1094;49.902;10.876;2023-03-01T13:53:31;32.37;;;29.73;;
2175;SDS011;1094;49.902;10.876;2023-03-01T13:56:03;30.17;;;27.67;;
2175;SDS011;1094;49.902;10.876;2023-03-01T13:58:33;31.20;;;28.73;;
2175;SDS011;1094;49.902;10.876;2023-03-01T14:01:04;31.43;;;28.80;;
2175;SDS011;1094;49.902;10.876;2023-03-01T14:03:31;33.70;;;30.70;;
2175;SDS011;1094;49.902;10.876;2023-03-01T14:05:59;31.67;;;29.03;;
2175;SDS011;1094;49.902;10.876;2023-03-01T14:08:26;30.73;;;28.30;;
2175;SDS011;1094;49.902;10.876;2023-03-01T14:16:07;31.97;;;29.10;;
2175;SDS011;1094;49.902;10.876;2023-03-01T14:18:44;32.47;;;29.57;;
2175;SDS011;1094;49.902;10.876;2023-03-01T14:21:13;31.40;;;28.80;;
2175;SDS011;1094;49.902;10.876;2023-03-01T14:23:40;31.23;;;28.53;;
2175;SDS011;1094;49.902;10.876;2023-03-01T14:26:07;27.63;;;25.40;;
2175;SDS011;1094;49.902;10.876;2023-03-01T14:28:33;32.07;;;29.47;;
2175;SDS011;1094;49.902;10.876;2023-03-01T14:31:30;31.73;;;29.07;;
2175;SDS011;1094;49.902;10.876;2023-03-01T14:33:54;31.57;;;28.83;;
2175;SDS011;1094;49.902;10.876;2023-03-01T14:36:25;30.53;;;28.00;;
2175;SDS011;1094;49.902;10.876;2023-03-01T14:38:51;30.30;;;27.73;;
2175;SDS011;1094;49.902;10.876;2023-03-01T14:41:18;31.37;;;28.43;;
2175;SDS011;1094;49.902;10.876;2023-03-01T14:43:46;31.83;;;29.13;;
2175;SDS011;1094;49.902;10.876;2023-03-01T14:48:58;30.63;;;28.20;;
2175;SDS011;1094;49.902;10.876;2023-03-01T14:51:26;33.07;;;30.17;;
2175;SDS011;1094;49.902;10.876;2023-03-01T14:53:52;31.37;;;28.40;;
2175;SDS011;1094;49.902;10.876;2023-03-01T14:56:19;30.60;;;27.87;;
2175;SDS011;1094;49.902;10.876;2023-03-01T14:58:45;29.90;;;27.40;;
2175;SDS011;1094;49.902;10.876;2023-03-01T15:01:14;31.23;;;28.70;;
2175;SDS011;1094;49.902;10.876;2023-03-01T15:03:42;30.37;;;28.03;;
2175;SDS011;1094;49.902;10.876;2023-03-01T15:06:09;32.87;;;29.70;;
2175;SDS011;1094;49.902;10.876;2023-03-01T15:08:35;29.97;;;27.63;;
2175;SDS011;1094;49.902;10.876;2023-03-01T15:11:17;28.77;;;26.57;;
2175;SDS011;1094;49.902;10.876;2023-03-01T15:13:45;30.90;;;28.17;;
2175;SDS011;1094;49.902;10.876;2023-03-01T15:16:12;31.20;;;28.60;;
2175;SDS011;1094;49.902;10.876;2023-03-01T15:18:46;28.40;;;26.17;;
2175;SDS011;1094;49.902;10.876;2023-03-01T15:21:22;29.93;;;27.43;;
2175;SDS011;1094;49.902;10.876;2023-03-01T15:23:53;31.27;;;28.70;;
2175;SDS011;1094;49.902;10.876;2023-03-01T15:26:28;30.53;;;28.03;;
2175;SDS011;1094;49.902;10.876;2023-03-01T15:28:56;30.50;;;27.83;;
2175;SDS011;1094;49.902;10.876;2023-03-01T15:31:27;29.67;;;27.43;;
2175;SDS011;1094;49.902;10.876;2023-03-01T15:34:06;31.77;;;29.10;;
2175;SDS011;1094;49.902;10.876;2023-03-01T15:38:59;30.97;;;28.13;;
2175;SDS011;1094;49.902;10.876;2023-03-01T15:43:58;31.87;;;28.97;;
2175;SDS011;1094;49.902;10.876;2023-03-01T15:46:26;31.17;;;28.47;;
2175;SDS011;1094;49.902;10.876;2023-03-01T15:48:59;31.03;;;28.40;;
2175;SDS011;1094;49.902;10.876;2023-03-01T15:51:36;31.40;;;28.70;;
2175;SDS011;1094;49.902;10.876;2023-03-01T15:54:21;31.90;;;29.20;;
2175;SDS011;1094;49.902;10.876;2023-03-01T15:56:48;31.47;;;28.97;;
2175;SDS011;1094;49.902;10.876;2023-03-01T15:59:14;31.73;;;28.70;;
2175;SDS011;1094;49.902;10.876;2023-03-01T16:01:40;32.83;;;29.80;;
2175;SDS011;1094;49.902;10.876;2023-03-01T16:04:06;30.10;;;27.70;;
2175;SDS011;1094;49.902;10.876;2023-03-01T16:06:32;33.43;;;30.43;;
2175;SDS011;1094;49.902;10.876;2023-03-01T16:08:58;32.77;;;29.90;;
2175;SDS011;1094;49.902;10.876;2023-03-01T16:11:24;34.17;;;30.93;;
2175;SDS011;1094;49.902;10.876;2023-03-01T16:13:50;30.93;;;28.43;;
2175;SDS011;1094;49.902;10.876;2023-03-01T16:16:16;33.60;;;30.60;;
2175;SDS011;1094;49.902;10.876;2023-03-01T16:18:43;32.57;;;29.57;;
2175;SDS011;1094;49.902;10.876;2023-03-01T16:21:27;33.50;;;30.30;;
2175;SDS011;1094;49.902;10.876;2023-03-01T16:23:53;34.37;;;31.27;;